sensor_id;sensor_type;location;lat;lon;timestamp;temperature;humidity
1806;DHT22;901;48.142;11.516;2023-05-24T00:01:20;13.30;99.90
1806;DHT22;901;48.142;11.516;2023-05-24T00:03:50;13.30;99.90
1806;DHT22;901;48.142;11.516;2023-05-24T00:06:17;13.20;99.90
1806;DHT22;901;48.142;11.516;2023-05-24T00:08:44;13.30;99.90
1806;DHT22;901;48.142;11.516;2023-05-24T00:11:10;13.30;99.90
1806;DHT22;901;48.142;11.516;2023-05-24T00:13:39;13.40;99.90
1806;DHT22;901;48.142;11.516;2023-05-24T00:16:07;13.40;99.90
1806;DHT22;901;48.142;11.516;2023-05-24T00:18:35;13.40;99.90
1806;DHT22;901;48.142;11.516;2023-05-24T00:21:05;13.40;99.90
1806;DHT22;901;48.142;11.516;2023-05-24T00:23:32;13.40;99.90
1806;DHT22;901;48.142;11.516;2023-05-24T00:25:59;13.30;99.90
1806;DHT22;901;48.142;11.516;2023-05-24T00:28:26;13.30;99.90
1806;DHT22;901;48.142;11.516;2023-05-24T00:30:54;13.30;99.90
1806;DHT22;901;48.142;11.516;2023-05-24T00:33:21;13.20;99.90
1806;DHT22;901;48.142;11.516;2023-05-24T00:35:48;13.20;99.90
1806;DHT22;901;48.142;11.516;2023-05-24T00:38:18;13.30;99.90
1806;DHT22;901;48.142;11.516;2023-05-24T00:40:45;13.30;99.90
1806;DHT22;901;48.142;11.516;2023-05-24T00:43:13;13.20;99.90
1806;DHT22;901;48.142;11.516;2023-05-24T00:45:40;13.30;99.90
1806;DHT22;901;48.142;11.516;2023-05-24T00:48:08;13.20;99.90
1806;DHT22;901;48.142;11.516;2023-05-24T00:50:37;13.20;99.90
1806;DHT22;901;48.142;11.516;2023-05-24T00:53:03;13.30;99.90
1806;DHT22;901;48.142;11.516;2023-05-24T00:55:33;13.30;99.90
1806;DHT22;901;48.142;11.516;2023-05-24T00:58:01;13.20;99.90
1806;DHT22;901;48.142;11.516;2023-05-24T01:00:28;13.70;99.90
1806;DHT22;901;48.142;11.516;2023-05-24T01:02:56;13.20;99.90
1806;DHT22;901;48.142;11.516;2023-05-24T01:05:24;13.10;99.90
1806;DHT22;901;48.142;11.516;2023-05-24T01:08:01;13.10;99.90
1806;DHT22;901;48.142;11.516;2023-05-24T01:10:36;13.10;99.90
1806;DHT22;901;48.142;11.516;2023-05-24T01:13:11;13.10;99.90
1806;DHT22;901;48.142;11.516;2023-05-24T01:15:49;13.10;99.90
1806;DHT22;901;48.142;11.516;2023-05-24T01:18:21;13.10;99.90
1806;DHT22;901;48.142;11.516;2023-05-24T01:20:59;13.10;99.90
1806;DHT22;901;48.142;11.516;2023-05-24T01:23:40;13.10;99.90
1806;DHT22;901;48.142;11.516;2023-05-24T01:26:30;12.70;99.90
1806;DHT22;901;48.142;11.516;2023-05-24T01:28:59;13.00;99.90
1806;DHT22;901;48.142;11.516;2023-05-24T01:31:27;13.00;99.90
1806;DHT22;901;48.142;11.516;2023-05-24T01:33:54;13.10;99.90
1806;DHT22;901;48.142;11.516;2023-05-24T01:36:21;13.00;99.90
1806;DHT22;901;48.142;11.516;2023-05-24T01:38:50;13.00;99.90
1806;DHT22;901;48.142;11.516;2023-05-24T01:41:26;13.00;99.90
1806;DHT22;901;48.142;11.516;2023-05-24T01:44:07;12.90;99.90
1806;DHT22;901;48.142;11.516;2023-05-24T01:46:38;13.10;99.90
1806;DHT22;901;48.142;11.516;2023-05-24T01:49:12;13.00;99.90
1806;DHT22;901;48.142;11.516;2023-05-24T01:51:43;12.90;99.90
1806;DHT22;901;48.142;11.516;2023-05-24T01:54:15;13.10;99.90
1806;DHT22;901;48.142;11.516;2023-05-24T01:56:47;13.00;99.90
1806;DHT22;901;48.142;11.516;2023-05-24T01:59:16;13.00;99.90
1806;DHT22;901;48.142;11.516;2023-05-24T02:01:43;13.00;99.90
1806;DHT22;901;48.142;11.516;2023-05-24T02:04:11;13.00;99.90
1806;DHT22;901;48.142;11.516;2023-05-24T02:06:38;13.00;99.90
1806;DHT22;901;48.142;11.516;2023-05-24T02:09:05;12.90;99.90
1806;DHT22;901;48.142;11.516;2023-05-24T02:11:31;12.90;99.90
1806;DHT22;901;48.142;11.516;2023-05-24T02:13:58;12.90;99.90
1806;DHT22;901;48.142;11.516;2023-05-24T02:16:26;12.90;99.90
1806;DHT22;901;48.142;11.516;2023-05-24T02:18:55;12.90;99.90
1806;DHT22;901;48.142;11.516;2023-05-24T02:21:21;13.00;99.90
1806;DHT22;901;48.142;11.516;2023-05-24T02:23:49;12.90;99.90
1806;DHT22;901;48.142;11.516;2023-05-24T02:26:16;13.00;99.90
1806;DHT22;901;48.142;11.516;2023-05-24T02:28:44;12.90;99.90
1806;DHT22;901;48.142;11.516;2023-05-24T02:31:10;12.80;99.90
1806;DHT22;901;48.142;11.516;2023-05-24T02:33:38;12.80;99.90
1806;DHT22;901;48.142;11.516;2023-05-24T02:36:05;12.80;99.90
1806;DHT22;901;48.142;11.516;2023-05-24T02:38:32;12.80;99.90
1806;DHT22;901;48.142;11.516;2023-05-24T02:40:59;12.80;99.90
1806;DHT22;901;48.142;11.516;2023-05-24T02:43:26;12.90;99.90
1806;DHT22;901;48.142;11.516;2023-05-24T02:45:53;12.90;99.90
1806;DHT22;901;48.142;11.516;2023-05-24T02:48:19;12.80;99.90
1806;DHT22;901;48.142;11.516;2023-05-24T02:50:47;12.90;99.90
1806;DHT22;901;48.142;11.516;2023-05-24T02:53:14;12.90;99.90
1806;DHT22;901;48.142;11.516;2023-05-24T02:55:41;13.20;99.90
1806;DHT22;901;48.142;11.516;2023-05-24T02:58:11;12.80;99.90
1806;DHT22;901;48.142;11.516;2023-05-24T03:00:38;12.80;99.90
1806;DHT22;901;48.142;11.516;2023-05-24T03:03:04;12.70;99.90
1806;DHT22;901;48.142;11.516;2023-05-24T03:05:31;12.70;99.90
1806;DHT22;901;48.142;11.516;2023-05-24T03:07:59;12.60;99.90
1806;DHT22;901;48.142;11.516;2023-05-24T03:10:26;12.70;99.90
1806;DHT22;901;48.142;11.516;2023-05-24T03:12:53;12.60;99.90
1806;DHT22;901;48.142;11.516;2023-05-24T03:15:20;12.60;99.90
1806;DHT22;901;48.142;11.516;2023-05-24T03:17:46;12.60;99.90
1806;DHT22;901;48.142;11.516;2023-05-24T03:20:13;12.70;99.90
1806;DHT22;901;48.142;11.516;2023-05-24T03:22:42;12.70;99.90
1806;DHT22;901;48.142;11.516;2023-05-24T03:25:10;12.70;99.90
1806;DHT22;901;48.142;11.516;2023-05-24T03:27:37;12.70;99.90
1806;DHT22;901;48.142;11.516;2023-05-24T03:30:04;12.60;99.90
1806;DHT22;901;48.142;11.516;2023-05-24T03:32:31;12.50;99.90
1806;DHT22;901;48.142;11.516;2023-05-24T03:34:58;12.60;99.90
1806;DHT22;901;48.142;11.516;2023-05-24T03:37:26;12.50;99.90
1806;DHT22;901;48.142;11.516;2023-05-24T03:39:53;12.50;99.90
1806;DHT22;901;48.142;11.516;2023-05-24T03:42:21;12.50;99.90
1806;DHT22;901;48.142;11.516;2023-05-24T03:44:48;12.50;99.90
1806;DHT22;901;48.142;11.516;2023-05-24T03:47:14;12.40;99.90
1806;DHT22;901;48.142;11.516;2023-05-24T03:49:41;12.40;99.90
1806;DHT22;901;48.142;11.516;2023-05-24T03:52:08;12.60;99.90
1806;DHT22;901;48.142;11.516;2023-05-24T03:54:35;12.30;99.90
1806;DHT22;901;48.142;11.516;2023-05-24T03:57:02;12.30;99.90
1806;DHT22;901;48.142;11.516;2023-05-24T03:59:30;12.30;99.90
1806;DHT22;901;48.142;11.516;2023-05-24T04:01:57;12.00;99.90
1806;DHT22;901;48.142;11.516;2023-05-24T04:04:24;12.30;99.90
1806;DHT22;901;48.142;11.516;2023-05-24T04:06:50;12.30;99.90
1806;DHT22;901;48.142;11.516;2023-05-24T04:09:18;12.30;99.90
1806;DHT22;901;48.142;11.516;2023-05-24T04:11:45;12.30;99.90
1806;DHT22;901;48.142;11.516;2023-05-24T04:14:12;12.30;99.90
1806;DHT22;901;48.142;11.516;2023-05-24T04:16:40;12.30;99.90
1806;DHT22;901;48.142;11.516;2023-05-24T04:19:09;12.40;99.90
1806;DHT22;901;48.142;11.516;2023-05-24T04:21:36;12.40;99.90
1806;DHT22;901;48.142;11.516;2023-05-24T04:24:04;12.30;99.90
1806;DHT22;901;48.142;11.516;2023-05-24T04:26:31;12.40;99.90
1806;DHT22;901;48.142;11.516;2023-05-24T04:28:58;12.40;99.90
1806;DHT22;901;48.142;11.516;2023-05-24T04:31:26;12.30;99.90
1806;DHT22;901;48.142;11.516;2023-05-24T04:33:55;12.30;99.90
1806;DHT22;901;48.142;11.516;2023-05-24T04:36:23;12.30;99.90
1806;DHT22;901;48.142;11.516;2023-05-24T04:38:50;12.20;99.90
1806;DHT22;901;48.142;11.516;2023-05-24T04:43:46;12.30;99.90
1806;DHT22;901;48.142;11.516;2023-05-24T04:46:14;12.40;99.90
1806;DHT22;901;48.142;11.516;2023-05-24T04:48:41;12.50;99.90
1806;DHT22;901;48.142;11.516;2023-05-24T04:51:09;12.40;99.90
1806;DHT22;901;48.142;11.516;2023-05-24T04:53:37;12.60;99.90
1806;DHT22;901;48.142;11.516;2023-05-24T04:56:04;12.50;99.90
1806;DHT22;901;48.142;11.516;2023-05-24T04:58:30;12.40;99.90
1806;DHT22;901;48.142;11.516;2023-05-24T05:00:57;12.40;99.90
1806;DHT22;901;48.142;11.516;2023-05-24T05:03:24;12.40;99.90
1806;DHT22;901;48.142;11.516;2023-05-24T05:05:51;12.50;99.90
1806;DHT22;901;48.142;11.516;2023-05-24T05:08:19;12.50;99.90
1806;DHT22;901;48.142;11.516;2023-05-24T05:10:46;12.40;99.90
1806;DHT22;901;48.142;11.516;2023-05-24T05:13:12;12.60;99.90
1806;DHT22;901;48.142;11.516;2023-05-24T05:15:39;12.60;99.90
1806;DHT22;901;48.142;11.516;2023-05-24T05:18:06;12.60;99.90
1806;DHT22;901;48.142;11.516;2023-05-24T05:20:33;12.80;99.90
1806;DHT22;901;48.142;11.516;2023-05-24T05:22:59;12.90;99.90
1806;DHT22;901;48.142;11.516;2023-05-24T05:25:28;13.10;99.90
1806;DHT22;901;48.142;11.516;2023-05-24T05:27:55;13.00;99.90
1806;DHT22;901;48.142;11.516;2023-05-24T05:30:22;13.00;99.90
1806;DHT22;901;48.142;11.516;2023-05-24T05:32:49;12.80;99.90
1806;DHT22;901;48.142;11.516;2023-05-24T05:35:15;12.90;99.90
1806;DHT22;901;48.142;11.516;2023-05-24T05:37:42;12.70;99.90
1806;DHT22;901;48.142;11.516;2023-05-24T05:40:10;12.90;99.90
1806;DHT22;901;48.142;11.516;2023-05-24T05:42:38;12.90;99.90
1806;DHT22;901;48.142;11.516;2023-05-24T05:45:06;12.90;99.90
1806;DHT22;901;48.142;11.516;2023-05-24T05:47:34;12.80;99.90
1806;DHT22;901;48.142;11.516;2023-05-24T05:50:01;13.00;99.90
1806;DHT22;901;48.142;11.516;2023-05-24T05:52:27;13.20;99.90
1806;DHT22;901;48.142;11.516;2023-05-24T05:54:54;13.20;99.90
1806;DHT22;901;48.142;11.516;2023-05-24T05:57:21;13.40;99.90
1806;DHT22;901;48.142;11.516;2023-05-24T05:59:50;13.50;99.90
1806;DHT22;901;48.142;11.516;2023-05-24T06:02:17;13.70;99.90
1806;DHT22;901;48.142;11.516;2023-05-24T06:04:44;13.80;99.90
1806;DHT22;901;48.142;11.516;2023-05-24T06:07:11;14.10;99.90
1806;DHT22;901;48.142;11.516;2023-05-24T06:09:38;14.10;99.90
1806;DHT22;901;48.142;11.516;2023-05-24T06:12:05;14.30;99.90
1806;DHT22;901;48.142;11.516;2023-05-24T06:14:32;14.10;99.90
1806;DHT22;901;48.142;11.516;2023-05-24T06:17:00;14.50;99.90
1806;DHT22;901;48.142;11.516;2023-05-24T06:19:27;14.40;99.90
1806;DHT22;901;48.142;11.516;2023-05-24T06:21:53;14.20;99.90
1806;DHT22;901;48.142;11.516;2023-05-24T06:24:20;14.70;99.90
1806;DHT22;901;48.142;11.516;2023-05-24T06:26:48;14.70;99.90
1806;DHT22;901;48.142;11.516;2023-05-24T06:29:15;15.00;99.90
1806;DHT22;901;48.142;11.516;2023-05-24T06:31:45;15.30;99.90
1806;DHT22;901;48.142;11.516;2023-05-24T06:34:14;15.50;99.90
1806;DHT22;901;48.142;11.516;2023-05-24T06:36:42;15.70;99.90
1806;DHT22;901;48.142;11.516;2023-05-24T06:39:11;15.70;99.90
1806;DHT22;901;48.142;11.516;2023-05-24T06:41:38;15.40;99.90
1806;DHT22;901;48.142;11.516;2023-05-24T06:44:05;15.50;99.90
1806;DHT22;901;48.142;11.516;2023-05-24T06:46:31;15.70;99.90
1806;DHT22;901;48.142;11.516;2023-05-24T06:48:58;15.60;99.90
1806;DHT22;901;48.142;11.516;2023-05-24T06:51:26;15.50;99.90
1806;DHT22;901;48.142;11.516;2023-05-24T06:53:53;15.40;99.90
1806;DHT22;901;48.142;11.516;2023-05-24T06:56:20;15.30;99.90
1806;DHT22;901;48.142;11.516;2023-05-24T07:08:44;16.40;99.90
1806;DHT22;901;48.142;11.516;2023-05-24T07:11:11;17.30;99.90
1806;DHT22;901;48.142;11.516;2023-05-24T07:13:38;16.60;99.90
1806;DHT22;901;48.142;11.516;2023-05-24T07:16:05;16.40;99.90
1806;DHT22;901;48.142;11.516;2023-05-24T07:18:32;16.50;99.90
1806;DHT22;901;48.142;11.516;2023-05-24T07:20:59;16.50;99.90
1806;DHT22;901;48.142;11.516;2023-05-24T07:23:26;17.00;99.90
1806;DHT22;901;48.142;11.516;2023-05-24T07:25:54;16.70;99.90
1806;DHT22;901;48.142;11.516;2023-05-24T07:28:21;16.80;99.90
1806;DHT22;901;48.142;11.516;2023-05-24T07:30:47;16.30;99.90
1806;DHT22;901;48.142;11.516;2023-05-24T07:33:14;16.40;99.90
1806;DHT22;901;48.142;11.516;2023-05-24T07:35:41;16.60;99.90
1806;DHT22;901;48.142;11.516;2023-05-24T07:38:10;16.60;99.90
1806;DHT22;901;48.142;11.516;2023-05-24T07:40:37;16.40;99.90
1806;DHT22;901;48.142;11.516;2023-05-24T07:43:05;16.30;99.90
1806;DHT22;901;48.142;11.516;2023-05-24T07:45:32;16.50;99.90
1806;DHT22;901;48.142;11.516;2023-05-24T07:47:59;16.50;99.90
1806;DHT22;901;48.142;11.516;2023-05-24T07:50:26;16.50;99.90
1806;DHT22;901;48.142;11.516;2023-05-24T07:52:53;16.30;99.90
1806;DHT22;901;48.142;11.516;2023-05-24T07:55:20;16.10;99.90
1806;DHT22;901;48.142;11.516;2023-05-24T07:57:47;16.30;99.90
1806;DHT22;901;48.142;11.516;2023-05-24T08:00:16;16.40;99.90
1806;DHT22;901;48.142;11.516;2023-05-24T08:02:44;16.20;99.90
1806;DHT22;901;48.142;11.516;2023-05-24T08:05:12;16.40;99.90
1806;DHT22;901;48.142;11.516;2023-05-24T08:07:39;16.40;99.90
1806;DHT22;901;48.142;11.516;2023-05-24T08:10:08;16.20;99.90
1806;DHT22;901;48.142;11.516;2023-05-24T08:12:35;16.10;99.90
1806;DHT22;901;48.142;11.516;2023-05-24T08:15:02;16.30;99.90
1806;DHT22;901;48.142;11.516;2023-05-24T08:17:30;16.40;99.90
1806;DHT22;901;48.142;11.516;2023-05-24T08:19:57;16.60;99.90
1806;DHT22;901;48.142;11.516;2023-05-24T08:22:24;16.60;99.90
1806;DHT22;901;48.142;11.516;2023-05-24T08:24:51;16.60;99.90
1806;DHT22;901;48.142;11.516;2023-05-24T08:27:18;16.60;99.90
1806;DHT22;901;48.142;11.516;2023-05-24T08:29:45;16.70;99.90
1806;DHT22;901;48.142;11.516;2023-05-24T08:32:12;16.70;99.90
1806;DHT22;901;48.142;11.516;2023-05-24T08:34:40;16.60;99.90
1806;DHT22;901;48.142;11.516;2023-05-24T08:37:08;16.60;99.90
1806;DHT22;901;48.142;11.516;2023-05-24T08:39:35;16.40;99.90
1806;DHT22;901;48.142;11.516;2023-05-24T08:42:03;16.20;99.90
1806;DHT22;901;48.142;11.516;2023-05-24T08:44:31;15.80;99.90
1806;DHT22;901;48.142;11.516;2023-05-24T08:47:03;15.80;99.90
1806;DHT22;901;48.142;11.516;2023-05-24T08:49:30;15.60;99.90
1806;DHT22;901;48.142;11.516;2023-05-24T08:51:59;15.40;99.90
1806;DHT22;901;48.142;11.516;2023-05-24T08:54:27;15.10;99.90
1806;DHT22;901;48.142;11.516;2023-05-24T08:56:54;14.80;99.90
1806;DHT22;901;48.142;11.516;2023-05-24T08:59:22;14.60;99.90
1806;DHT22;901;48.142;11.516;2023-05-24T09:01:52;14.70;99.90
1806;DHT22;901;48.142;11.516;2023-05-24T09:04:21;14.60;99.90
1806;DHT22;901;48.142;11.516;2023-05-24T09:06:48;14.60;99.90
1806;DHT22;901;48.142;11.516;2023-05-24T09:09:17;14.60;99.90
1806;DHT22;901;48.142;11.516;2023-05-24T09:11:48;14.90;99.90
1806;DHT22;901;48.142;11.516;2023-05-24T09:14:17;15.10;99.90
1806;DHT22;901;48.142;11.516;2023-05-24T09:16:44;15.30;99.90
1806;DHT22;901;48.142;11.516;2023-05-24T09:19:11;15.50;99.90
1806;DHT22;901;48.142;11.516;2023-05-24T09:21:38;15.60;99.90
1806;DHT22;901;48.142;11.516;2023-05-24T09:24:06;15.70;99.90
1806;DHT22;901;48.142;11.516;2023-05-24T09:26:36;15.80;99.90
1806;DHT22;901;48.142;11.516;2023-05-24T09:29:05;15.80;99.90
1806;DHT22;901;48.142;11.516;2023-05-24T09:31:33;15.50;99.90
1806;DHT22;901;48.142;11.516;2023-05-24T09:34:00;15.50;99.90
1806;DHT22;901;48.142;11.516;2023-05-24T09:36:27;15.40;99.90
1806;DHT22;901;48.142;11.516;2023-05-24T09:39:05;15.20;99.90
1806;DHT22;901;48.142;11.516;2023-05-24T09:41:34;15.10;99.90
1806;DHT22;901;48.142;11.516;2023-05-24T09:44:02;15.10;99.90
1806;DHT22;901;48.142;11.516;2023-05-24T09:46:34;14.70;99.90
1806;DHT22;901;48.142;11.516;2023-05-24T09:49:02;14.90;99.90
1806;DHT22;901;48.142;11.516;2023-05-24T09:51:32;14.70;99.90
1806;DHT22;901;48.142;11.516;2023-05-24T09:54:00;14.80;99.90
1806;DHT22;901;48.142;11.516;2023-05-24T09:56:28;14.90;99.90
1806;DHT22;901;48.142;11.516;2023-05-24T09:58:55;14.90;99.90
1806;DHT22;901;48.142;11.516;2023-05-24T10:01:23;14.90;99.90
1806;DHT22;901;48.142;11.516;2023-05-24T10:03:51;14.90;99.90
1806;DHT22;901;48.142;11.516;2023-05-24T10:06:19;14.80;99.90
1806;DHT22;901;48.142;11.516;2023-05-24T10:08:46;14.70;99.90
1806;DHT22;901;48.142;11.516;2023-05-24T10:11:13;14.70;99.90
1806;DHT22;901;48.142;11.516;2023-05-24T10:13:41;14.60;99.90
1806;DHT22;901;48.142;11.516;2023-05-24T10:16:08;14.40;99.90
1806;DHT22;901;48.142;11.516;2023-05-24T10:18:37;14.40;99.90
1806;DHT22;901;48.142;11.516;2023-05-24T10:21:05;14.50;99.90
1806;DHT22;901;48.142;11.516;2023-05-24T10:23:36;14.60;99.90
1806;DHT22;901;48.142;11.516;2023-05-24T10:26:04;14.50;99.90
1806;DHT22;901;48.142;11.516;2023-05-24T10:28:33;14.60;99.90
1806;DHT22;901;48.142;11.516;2023-05-24T10:31:06;14.50;99.90
1806;DHT22;901;48.142;11.516;2023-05-24T10:33:38;14.50;99.90
1806;DHT22;901;48.142;11.516;2023-05-24T10:36:06;14.70;99.90
1806;DHT22;901;48.142;11.516;2023-05-24T10:38:36;14.70;99.90
1806;DHT22;901;48.142;11.516;2023-05-24T10:41:04;14.80;99.90
1806;DHT22;901;48.142;11.516;2023-05-24T10:43:33;15.00;99.90
1806;DHT22;901;48.142;11.516;2023-05-24T10:46:02;15.10;99.90
1806;DHT22;901;48.142;11.516;2023-05-24T10:48:37;15.20;99.90
1806;DHT22;901;48.142;11.516;2023-05-24T10:51:30;15.00;99.90
1806;DHT22;901;48.142;11.516;2023-05-24T10:54:17;14.80;99.90
1806;DHT22;901;48.142;11.516;2023-05-24T10:56:45;14.90;99.90
1806;DHT22;901;48.142;11.516;2023-05-24T10:59:30;14.70;99.90
1806;DHT22;901;48.142;11.516;2023-05-24T11:01:59;14.70;99.90
1806;DHT22;901;48.142;11.516;2023-05-24T11:04:31;14.60;99.90
1806;DHT22;901;48.142;11.516;2023-05-24T11:07:01;14.60;99.90
1806;DHT22;901;48.142;11.516;2023-05-24T11:09:29;14.80;99.90
1806;DHT22;901;48.142;11.516;2023-05-24T11:12:00;14.90;99.90
1806;DHT22;901;48.142;11.516;2023-05-24T11:14:29;15.00;99.90
1806;DHT22;901;48.142;11.516;2023-05-24T11:16:58;15.00;99.90
1806;DHT22;901;48.142;11.516;2023-05-24T11:19:32;14.80;99.90
1806;DHT22;901;48.142;11.516;2023-05-24T11:22:03;15.20;99.90
1806;DHT22;901;48.142;11.516;2023-05-24T11:24:32;15.10;99.90
1806;DHT22;901;48.142;11.516;2023-05-24T11:26:59;15.00;99.90
1806;DHT22;901;48.142;11.516;2023-05-24T11:29:27;15.20;99.90
1806;DHT22;901;48.142;11.516;2023-05-24T11:31:55;15.10;99.90
1806;DHT22;901;48.142;11.516;2023-05-24T11:34:23;15.30;99.90
1806;DHT22;901;48.142;11.516;2023-05-24T11:36:53;15.60;99.90
1806;DHT22;901;48.142;11.516;2023-05-24T11:39:19;15.70;99.90
1806;DHT22;901;48.142;11.516;2023-05-24T11:41:48;15.90;99.90
1806;DHT22;901;48.142;11.516;2023-05-24T11:44:17;15.80;99.90
1806;DHT22;901;48.142;11.516;2023-05-24T11:46:44;15.70;99.90
1806;DHT22;901;48.142;11.516;2023-05-24T11:49:12;15.60;99.90
1806;DHT22;901;48.142;11.516;2023-05-24T11:51:39;15.70;99.90
1806;DHT22;901;48.142;11.516;2023-05-24T11:54:08;15.90;99.90
1806;DHT22;901;48.142;11.516;2023-05-24T11:56:36;15.70;99.90
1806;DHT22;901;48.142;11.516;2023-05-24T11:59:10;15.80;99.90
1806;DHT22;901;48.142;11.516;2023-05-24T12:01:39;15.90;99.90
1806;DHT22;901;48.142;11.516;2023-05-24T12:04:06;15.90;99.90
1806;DHT22;901;48.142;11.516;2023-05-24T12:06:35;15.90;99.90
1806;DHT22;901;48.142;11.516;2023-05-24T12:09:02;15.80;99.90
1806;DHT22;901;48.142;11.516;2023-05-24T12:11:34;15.50;99.90
1806;DHT22;901;48.142;11.516;2023-05-24T12:14:03;15.80;99.90
1806;DHT22;901;48.142;11.516;2023-05-24T12:16:30;16.00;99.90
1806;DHT22;901;48.142;11.516;2023-05-24T12:18:58;16.10;99.90
1806;DHT22;901;48.142;11.516;2023-05-24T12:21:29;16.10;99.90
1806;DHT22;901;48.142;11.516;2023-05-24T12:23:56;16.10;99.90
1806;DHT22;901;48.142;11.516;2023-05-24T12:26:23;16.10;99.90
1806;DHT22;901;48.142;11.516;2023-05-24T12:28:54;16.10;99.90
1806;DHT22;901;48.142;11.516;2023-05-24T12:31:21;16.40;99.90
1806;DHT22;901;48.142;11.516;2023-05-24T12:33:48;16.60;99.90
1806;DHT22;901;48.142;11.516;2023-05-24T12:36:16;16.40;99.90
1806;DHT22;901;48.142;11.516;2023-05-24T12:38:42;16.20;99.90
1806;DHT22;901;48.142;11.516;2023-05-24T12:41:09;16.10;99.90
1806;DHT22;901;48.142;11.516;2023-05-24T12:43:38;16.20;99.90
1806;DHT22;901;48.142;11.516;2023-05-24T12:46:06;15.90;99.90
1806;DHT22;901;48.142;11.516;2023-05-24T12:48:33;15.90;99.90
1806;DHT22;901;48.142;11.516;2023-05-24T12:50:59;15.90;99.90
1806;DHT22;901;48.142;11.516;2023-05-24T12:53:28;15.80;99.90
1806;DHT22;901;48.142;11.516;2023-05-24T12:55:55;15.70;99.90
1806;DHT22;901;48.142;11.516;2023-05-24T12:58:22;15.50;99.90
1806;DHT22;901;48.142;11.516;2023-05-24T13:00:48;15.60;99.90
1806;DHT22;901;48.142;11.516;2023-05-24T13:03:17;15.60;99.90
1806;DHT22;901;48.142;11.516;2023-05-24T13:05:44;15.80;99.90
1806;DHT22;901;48.142;11.516;2023-05-24T13:08:11;15.00;99.90
1806;DHT22;901;48.142;11.516;2023-05-24T13:10:39;16.40;99.90
1806;DHT22;901;48.142;11.516;2023-05-24T13:13:06;16.60;99.90
1806;DHT22;901;48.142;11.516;2023-05-24T13:15:33;16.50;99.90
1806;DHT22;901;48.142;11.516;2023-05-24T13:18:00;16.70;99.90
1806;DHT22;901;48.142;11.516;2023-05-24T13:20:28;16.30;99.90
1806;DHT22;901;48.142;11.516;2023-05-24T13:22:55;17.10;99.90
1806;DHT22;901;48.142;11.516;2023-05-24T13:25:22;17.30;99.90
1806;DHT22;901;48.142;11.516;2023-05-24T13:27:49;17.40;99.90
1806;DHT22;901;48.142;11.516;2023-05-24T13:30:15;17.20;99.90
1806;DHT22;901;48.142;11.516;2023-05-24T13:32:43;17.20;99.90
1806;DHT22;901;48.142;11.516;2023-05-24T13:35:10;17.60;99.90
1806;DHT22;901;48.142;11.516;2023-05-24T13:37:38;17.70;99.90
1806;DHT22;901;48.142;11.516;2023-05-24T13:40:06;17.60;99.90
1806;DHT22;901;48.142;11.516;2023-05-24T13:42:33;17.30;99.90
1806;DHT22;901;48.142;11.516;2023-05-24T13:45:00;17.10;99.90
1806;DHT22;901;48.142;11.516;2023-05-24T13:47:28;17.30;99.90
1806;DHT22;901;48.142;11.516;2023-05-24T13:49:54;17.40;99.90
1806;DHT22;901;48.142;11.516;2023-05-24T13:52:22;17.30;99.90
1806;DHT22;901;48.142;11.516;2023-05-24T13:54:50;17.30;99.90
1806;DHT22;901;48.142;11.516;2023-05-24T13:57:17;17.10;99.90
1806;DHT22;901;48.142;11.516;2023-05-24T13:59:44;17.00;99.90
1806;DHT22;901;48.142;11.516;2023-05-24T14:02:11;17.10;99.90
1806;DHT22;901;48.142;11.516;2023-05-24T14:04:38;17.10;99.90
1806;DHT22;901;48.142;11.516;2023-05-24T14:07:05;17.10;99.90
1806;DHT22;901;48.142;11.516;2023-05-24T14:09:33;17.00;99.90
1806;DHT22;901;48.142;11.516;2023-05-24T14:12:03;17.00;99.90
1806;DHT22;901;48.142;11.516;2023-05-24T14:14:31;17.30;99.90
1806;DHT22;901;48.142;11.516;2023-05-24T14:16:58;17.50;99.90
1806;DHT22;901;48.142;11.516;2023-05-24T14:19:25;17.90;99.90
1806;DHT22;901;48.142;11.516;2023-05-24T14:21:52;18.20;99.90
1806;DHT22;901;48.142;11.516;2023-05-24T14:24:19;18.00;99.90
1806;DHT22;901;48.142;11.516;2023-05-24T14:26:45;18.40;99.90
1806;DHT22;901;48.142;11.516;2023-05-24T14:29:14;18.80;99.90
1806;DHT22;901;48.142;11.516;2023-05-24T14:31:40;19.00;99.90
1806;DHT22;901;48.142;11.516;2023-05-24T14:34:08;19.30;99.90
1806;DHT22;901;48.142;11.516;2023-05-24T14:36:36;19.50;99.90
1806;DHT22;901;48.142;11.516;2023-05-24T14:39:04;19.40;99.90
1806;DHT22;901;48.142;11.516;2023-05-24T14:41:32;19.40;99.90
1806;DHT22;901;48.142;11.516;2023-05-24T14:43:59;19.60;99.90
1806;DHT22;901;48.142;11.516;2023-05-24T14:46:27;19.80;99.90
1806;DHT22;901;48.142;11.516;2023-05-24T14:48:54;19.90;99.90
1806;DHT22;901;48.142;11.516;2023-05-24T14:51:20;19.30;99.90
1806;DHT22;901;48.142;11.516;2023-05-24T14:53:47;19.00;99.90
1806;DHT22;901;48.142;11.516;2023-05-24T14:56:14;19.10;99.90
1806;DHT22;901;48.142;11.516;2023-05-24T14:58:41;19.10;99.90
1806;DHT22;901;48.142;11.516;2023-05-24T15:01:08;19.30;99.90
1806;DHT22;901;48.142;11.516;2023-05-24T15:03:36;19.10;99.90
1806;DHT22;901;48.142;11.516;2023-05-24T15:06:03;19.20;99.90
1806;DHT22;901;48.142;11.516;2023-05-24T15:08:31;19.40;99.90
1806;DHT22;901;48.142;11.516;2023-05-24T15:10:58;19.20;99.90
1806;DHT22;901;48.142;11.516;2023-05-24T15:13:25;18.80;99.90
1806;DHT22;901;48.142;11.516;2023-05-24T15:15:52;18.70;99.90
1806;DHT22;901;48.142;11.516;2023-05-24T15:18:21;18.30;99.90
1806;DHT22;901;48.142;11.516;2023-05-24T15:20:51;18.00;99.90
1806;DHT22;901;48.142;11.516;2023-05-24T15:23:18;18.30;99.90
1806;DHT22;901;48.142;11.516;2023-05-24T15:25:44;18.60;99.90
1806;DHT22;901;48.142;11.516;2023-05-24T15:28:11;18.90;99.90
1806;DHT22;901;48.142;11.516;2023-05-24T15:30:40;19.30;99.90
1806;DHT22;901;48.142;11.516;2023-05-24T15:33:08;19.70;99.90
1806;DHT22;901;48.142;11.516;2023-05-24T15:35:35;20.10;99.90
1806;DHT22;901;48.142;11.516;2023-05-24T15:38:04;20.10;99.90
1806;DHT22;901;48.142;11.516;2023-05-24T15:40:31;19.90;99.90
1806;DHT22;901;48.142;11.516;2023-05-24T15:42:58;19.50;99.90
1806;DHT22;901;48.142;11.516;2023-05-24T15:45:25;19.00;99.90
1806;DHT22;901;48.142;11.516;2023-05-24T15:47:52;19.00;99.90
1806;DHT22;901;48.142;11.516;2023-05-24T15:50:19;19.10;99.90
1806;DHT22;901;48.142;11.516;2023-05-24T15:52:46;19.10;99.90
1806;DHT22;901;48.142;11.516;2023-05-24T15:55:14;18.90;99.90
1806;DHT22;901;48.142;11.516;2023-05-24T15:57:41;18.50;99.90
1806;DHT22;901;48.142;11.516;2023-05-24T16:00:09;18.70;99.90
1806;DHT22;901;48.142;11.516;2023-05-24T16:02:36;18.70;99.90
1806;DHT22;901;48.142;11.516;2023-05-24T16:05:03;18.40;99.90
1806;DHT22;901;48.142;11.516;2023-05-24T16:07:30;18.30;99.90
1806;DHT22;901;48.142;11.516;2023-05-24T16:09:57;18.10;99.90
1806;DHT22;901;48.142;11.516;2023-05-24T16:12:25;17.90;99.90
1806;DHT22;901;48.142;11.516;2023-05-24T16:14:52;17.80;99.90
1806;DHT22;901;48.142;11.516;2023-05-24T16:17:19;18.00;99.90
1806;DHT22;901;48.142;11.516;2023-05-24T16:19:46;18.20;99.90